sensor_id;sensor_type;location;lat;lon;timestamp;temperature;humidity
19928;DHT22;10126;50.876;4.470;2023-04-25T00:00:48;9.70;99.90
19928;DHT22;10126;50.876;4.470;2023-04-25T00:02:49;9.50;99.90
19928;DHT22;10126;50.876;4.470;2023-04-25T00:04:49;9.50;99.90
19928;DHT22;10126;50.876;4.470;2023-04-25T00:06:50;9.50;99.90
19928;DHT22;10126;50.876;4.470;2023-04-25T00:08:52;9.50;99.90
19928;DHT22;10126;50.876;4.470;2023-04-25T00:10:53;9.50;99.90
19928;DHT22;10126;50.876;4.470;2023-04-25T00:12:54;9.50;99.90
19928;DHT22;10126;50.876;4.470;2023-04-25T00:14:55;9.50;99.90
19928;DHT22;10126;50.876;4.470;2023-04-25T00:16:57;9.50;99.90
19928;DHT22;10126;50.876;4.470;2023-04-25T00:18:58;9.50;99.90
19928;DHT22;10126;50.876;4.470;2023-04-25T00:20:59;9.70;99.90
19928;DHT22;10126;50.876;4.470;2023-04-25T00:22:59;9.60;99.90
19928;DHT22;10126;50.876;4.470;2023-04-25T00:25:04;9.70;99.90
19928;DHT22;10126;50.876;4.470;2023-04-25T00:27:05;9.60;99.90
19928;DHT22;10126;50.876;4.470;2023-04-25T00:29:06;9.60;99.90
19928;DHT22;10126;50.876;4.470;2023-04-25T00:31:06;9.60;99.90
19928;DHT22;10126;50.876;4.470;2023-04-25T00:33:07;9.50;99.90
19928;DHT22;10126;50.876;4.470;2023-04-25T00:35:09;9.60;99.90
19928;DHT22;10126;50.876;4.470;2023-04-25T00:37:10;9.60;99.90
19928;DHT22;10126;50.876;4.470;2023-04-25T00:39:20;9.60;99.90
19928;DHT22;10126;50.876;4.470;2023-04-25T00:41:25;9.60;99.90
19928;DHT22;10126;50.876;4.470;2023-04-25T00:43:32;9.50;99.90
19928;DHT22;10126;50.876;4.470;2023-04-25T00:46:01;9.70;99.90
19928;DHT22;10126;50.876;4.470;2023-04-25T00:48:22;9.60;99.90
19928;DHT22;10126;50.876;4.470;2023-04-25T00:50:43;9.60;99.90
19928;DHT22;10126;50.876;4.470;2023-04-25T00:52:50;9.60;99.90
19928;DHT22;10126;50.876;4.470;2023-04-25T00:57:43;9.50;99.90
19928;DHT22;10126;50.876;4.470;2023-04-25T00:59:54;9.50;99.90
19928;DHT22;10126;50.876;4.470;2023-04-25T01:02:05;9.40;99.90
19928;DHT22;10126;50.876;4.470;2023-04-25T01:04:09;9.30;99.90
19928;DHT22;10126;50.876;4.470;2023-04-25T01:06:11;9.30;99.90
19928;DHT22;10126;50.876;4.470;2023-04-25T01:08:13;9.20;99.90
19928;DHT22;10126;50.876;4.470;2023-04-25T01:10:14;9.30;99.90
19928;DHT22;10126;50.876;4.470;2023-04-25T01:12:24;9.30;99.90
19928;DHT22;10126;50.876;4.470;2023-04-25T01:14:25;9.00;99.90
19928;DHT22;10126;50.876;4.470;2023-04-25T01:16:26;8.90;99.90
19928;DHT22;10126;50.876;4.470;2023-04-25T01:18:27;9.10;99.90
19928;DHT22;10126;50.876;4.470;2023-04-25T01:20:28;9.20;99.90
19928;DHT22;10126;50.876;4.470;2023-04-25T01:22:29;9.30;99.90
19928;DHT22;10126;50.876;4.470;2023-04-25T01:24:32;9.30;99.90
19928;DHT22;10126;50.876;4.470;2023-04-25T01:26:33;9.20;99.90
19928;DHT22;10126;50.876;4.470;2023-04-25T01:28:35;9.30;99.90
19928;DHT22;10126;50.876;4.470;2023-04-25T01:30:36;9.30;99.90
19928;DHT22;10126;50.876;4.470;2023-04-25T01:32:37;9.20;99.90
19928;DHT22;10126;50.876;4.470;2023-04-25T01:34:40;9.20;99.90
19928;DHT22;10126;50.876;4.470;2023-04-25T01:36:41;9.20;99.90
19928;DHT22;10126;50.876;4.470;2023-04-25T01:38:42;9.20;99.90
19928;DHT22;10126;50.876;4.470;2023-04-25T01:40:45;9.30;99.90
19928;DHT22;10126;50.876;4.470;2023-04-25T01:42:47;9.30;99.90
19928;DHT22;10126;50.876;4.470;2023-04-25T01:44:48;9.10;99.90
19928;DHT22;10126;50.876;4.470;2023-04-25T01:46:48;9.00;99.90
19928;DHT22;10126;50.876;4.470;2023-04-25T01:48:49;9.00;99.90
19928;DHT22;10126;50.876;4.470;2023-04-25T01:50:50;8.90;99.90
19928;DHT22;10126;50.876;4.470;2023-04-25T01:52:51;8.80;99.90
19928;DHT22;10126;50.876;4.470;2023-04-25T01:54:51;8.80;99.90
19928;DHT22;10126;50.876;4.470;2023-04-25T01:56:52;8.80;99.90
19928;DHT22;10126;50.876;4.470;2023-04-25T01:58:53;8.70;99.90
19928;DHT22;10126;50.876;4.470;2023-04-25T02:00:54;8.70;99.90
19928;DHT22;10126;50.876;4.470;2023-04-25T02:02:58;8.70;99.90
19928;DHT22;10126;50.876;4.470;2023-04-25T02:04:58;8.40;99.90
19928;DHT22;10126;50.876;4.470;2023-04-25T02:06:59;8.50;99.90
19928;DHT22;10126;50.876;4.470;2023-04-25T02:09:00;8.40;99.90
19928;DHT22;10126;50.876;4.470;2023-04-25T02:11:00;8.30;99.90
19928;DHT22;10126;50.876;4.470;2023-04-25T02:13:01;8.30;99.90
19928;DHT22;10126;50.876;4.470;2023-04-25T02:15:02;8.30;99.90
19928;DHT22;10126;50.876;4.470;2023-04-25T02:17:03;8.30;99.90
19928;DHT22;10126;50.876;4.470;2023-04-25T02:19:04;8.30;99.90
19928;DHT22;10126;50.876;4.470;2023-04-25T02:21:05;8.20;99.90
19928;DHT22;10126;50.876;4.470;2023-04-25T02:23:06;8.20;99.90
19928;DHT22;10126;50.876;4.470;2023-04-25T02:25:07;8.20;99.90
19928;DHT22;10126;50.876;4.470;2023-04-25T02:27:09;8.30;99.90
19928;DHT22;10126;50.876;4.470;2023-04-25T02:29:10;8.50;99.90
19928;DHT22;10126;50.876;4.470;2023-04-25T02:31:11;8.60;99.90
19928;DHT22;10126;50.876;4.470;2023-04-25T02:33:11;8.70;99.90
19928;DHT22;10126;50.876;4.470;2023-04-25T02:35:12;8.90;99.90
19928;DHT22;10126;50.876;4.470;2023-04-25T02:37:13;9.10;99.90
19928;DHT22;10126;50.876;4.470;2023-04-25T02:39:13;9.30;99.90
19928;DHT22;10126;50.876;4.470;2023-04-25T02:41:14;9.30;99.90
19928;DHT22;10126;50.876;4.470;2023-04-25T02:43:15;9.40;99.90
19928;DHT22;10126;50.876;4.470;2023-04-25T02:45:16;9.40;99.90
19928;DHT22;10126;50.876;4.470;2023-04-25T02:47:17;9.30;99.90
19928;DHT22;10126;50.876;4.470;2023-04-25T02:49:17;9.20;99.90
19928;DHT22;10126;50.876;4.470;2023-04-25T02:51:18;9.30;99.90
19928;DHT22;10126;50.876;4.470;2023-04-25T02:53:19;9.20;99.90
19928;DHT22;10126;50.876;4.470;2023-04-25T02:55:19;9.10;99.90
19928;DHT22;10126;50.876;4.470;2023-04-25T02:57:20;9.10;99.90
19928;DHT22;10126;50.876;4.470;2023-04-25T02:59:21;9.20;99.90
19928;DHT22;10126;50.876;4.470;2023-04-25T03:01:22;9.20;99.90
19928;DHT22;10126;50.876;4.470;2023-04-25T03:03:22;9.20;99.90
19928;DHT22;10126;50.876;4.470;2023-04-25T03:05:23;9.10;99.90
19928;DHT22;10126;50.876;4.470;2023-04-25T03:07:24;9.20;99.90
19928;DHT22;10126;50.876;4.470;2023-04-25T03:09:30;9.00;99.90
19928;DHT22;10126;50.876;4.470;2023-04-25T03:11:30;9.10;99.90
19928;DHT22;10126;50.876;4.470;2023-04-25T03:13:31;9.20;99.90
19928;DHT22;10126;50.876;4.470;2023-04-25T03:15:32;9.20;99.90
19928;DHT22;10126;50.876;4.470;2023-04-25T03:17:32;9.00;99.90
19928;DHT22;10126;50.876;4.470;2023-04-25T03:19:33;9.00;99.90
19928;DHT22;10126;50.876;4.470;2023-04-25T03:21:35;8.90;99.90
19928;DHT22;10126;50.876;4.470;2023-04-25T03:23:35;9.00;99.90
19928;DHT22;10126;50.876;4.470;2023-04-25T03:25:36;9.00;99.90
19928;DHT22;10126;50.876;4.470;2023-04-25T03:27:37;8.90;99.90
19928;DHT22;10126;50.876;4.470;2023-04-25T03:29:37;8.70;99.90
19928;DHT22;10126;50.876;4.470;2023-04-25T03:31:38;8.70;99.90
19928;DHT22;10126;50.876;4.470;2023-04-25T03:33:38;8.80;99.90
19928;DHT22;10126;50.876;4.470;2023-04-25T03:35:39;8.40;99.90
19928;DHT22;10126;50.876;4.470;2023-04-25T03:37:40;8.30;99.90
19928;DHT22;10126;50.876;4.470;2023-04-25T03:39:41;8.10;99.90
19928;DHT22;10126;50.876;4.470;2023-04-25T03:41:41;8.00;99.90
19928;DHT22;10126;50.876;4.470;2023-04-25T03:43:42;8.00;99.90
19928;DHT22;10126;50.876;4.470;2023-04-25T03:45:45;7.90;99.90
19928;DHT22;10126;50.876;4.470;2023-04-25T03:47:45;7.60;99.90
19928;DHT22;10126;50.876;4.470;2023-04-25T03:49:46;7.40;99.90
19928;DHT22;10126;50.876;4.470;2023-04-25T03:51:47;7.20;99.90
19928;DHT22;10126;50.876;4.470;2023-04-25T03:53:48;7.10;99.90
19928;DHT22;10126;50.876;4.470;2023-04-25T03:55:48;7.00;99.90
19928;DHT22;10126;50.876;4.470;2023-04-25T03:57:49;6.90;99.90
19928;DHT22;10126;50.876;4.470;2023-04-25T03:59:50;6.90;99.90
19928;DHT22;10126;50.876;4.470;2023-04-25T04:01:50;6.90;99.90
19928;DHT22;10126;50.876;4.470;2023-04-25T04:03:51;6.80;99.90
19928;DHT22;10126;50.876;4.470;2023-04-25T04:05:52;6.80;99.90
19928;DHT22;10126;50.876;4.470;2023-04-25T04:07:53;6.90;99.90
19928;DHT22;10126;50.876;4.470;2023-04-25T04:09:54;7.00;99.90
19928;DHT22;10126;50.876;4.470;2023-04-25T04:12:00;7.00;99.90
19928;DHT22;10126;50.876;4.470;2023-04-25T04:14:02;7.00;99.90
19928;DHT22;10126;50.876;4.470;2023-04-25T04:16:02;7.20;99.90
19928;DHT22;10126;50.876;4.470;2023-04-25T04:18:04;7.40;99.90
19928;DHT22;10126;50.876;4.470;2023-04-25T04:20:06;7.70;99.90
19928;DHT22;10126;50.876;4.470;2023-04-25T04:22:15;7.60;99.90
19928;DHT22;10126;50.876;4.470;2023-04-25T04:24:16;7.60;99.90
19928;DHT22;10126;50.876;4.470;2023-04-25T04:26:17;7.60;99.90
19928;DHT22;10126;50.876;4.470;2023-04-25T04:28:18;7.80;99.90
19928;DHT22;10126;50.876;4.470;2023-04-25T04:30:19;7.90;99.90
19928;DHT22;10126;50.876;4.470;2023-04-25T04:32:20;8.00;99.90
19928;DHT22;10126;50.876;4.470;2023-04-25T04:34:20;8.10;99.90
19928;DHT22;10126;50.876;4.470;2023-04-25T04:36:21;8.30;99.90
19928;DHT22;10126;50.876;4.470;2023-04-25T04:38:23;8.30;99.90
19928;DHT22;10126;50.876;4.470;2023-04-25T04:40:27;8.30;99.90
19928;DHT22;10126;50.876;4.470;2023-04-25T04:42:27;8.30;99.90
19928;DHT22;10126;50.876;4.470;2023-04-25T04:44:29;8.40;99.90
19928;DHT22;10126;50.876;4.470;2023-04-25T04:46:33;8.30;99.90
19928;DHT22;10126;50.876;4.470;2023-04-25T04:48:38;8.30;99.90
19928;DHT22;10126;50.876;4.470;2023-04-25T04:50:40;8.40;99.90
19928;DHT22;10126;50.876;4.470;2023-04-25T04:52:43;8.40;99.90
19928;DHT22;10126;50.876;4.470;2023-04-25T04:54:44;8.40;99.90
19928;DHT22;10126;50.876;4.470;2023-04-25T04:56:45;8.20;99.90
19928;DHT22;10126;50.876;4.470;2023-04-25T04:58:45;8.10;99.90
19928;DHT22;10126;50.876;4.470;2023-04-25T05:00:49;8.10;99.90
19928;DHT22;10126;50.876;4.470;2023-04-25T05:02:50;8.20;99.90
19928;DHT22;10126;50.876;4.470;2023-04-25T05:04:51;8.10;99.90
19928;DHT22;10126;50.876;4.470;2023-04-25T05:06:52;7.90;99.90
19928;DHT22;10126;50.876;4.470;2023-04-25T05:08:53;7.80;99.90
19928;DHT22;10126;50.876;4.470;2023-04-25T05:10:53;7.60;99.90
19928;DHT22;10126;50.876;4.470;2023-04-25T05:12:55;7.40;99.90
19928;DHT22;10126;50.876;4.470;2023-04-25T05:14:55;7.40;99.90
19928;DHT22;10126;50.876;4.470;2023-04-25T05:16:56;7.30;99.90
19928;DHT22;10126;50.876;4.470;2023-04-25T05:18:57;7.20;99.90
19928;DHT22;10126;50.876;4.470;2023-04-25T05:20:57;7.20;99.90
19928;DHT22;10126;50.876;4.470;2023-04-25T05:22:58;7.20;99.90
19928;DHT22;10126;50.876;4.470;2023-04-25T05:24:58;7.20;99.90
19928;DHT22;10126;50.876;4.470;2023-04-25T05:26:59;7.30;99.90
19928;DHT22;10126;50.876;4.470;2023-04-25T05:29:00;7.40;99.90
19928;DHT22;10126;50.876;4.470;2023-04-25T05:31:01;7.60;99.90
19928;DHT22;10126;50.876;4.470;2023-04-25T05:33:01;7.70;99.90
19928;DHT22;10126;50.876;4.470;2023-04-25T05:35:02;8.00;99.90
19928;DHT22;10126;50.876;4.470;2023-04-25T05:37:03;8.10;99.90
19928;DHT22;10126;50.876;4.470;2023-04-25T05:39:03;8.30;99.90
19928;DHT22;10126;50.876;4.470;2023-04-25T05:41:05;8.30;99.90
19928;DHT22;10126;50.876;4.470;2023-04-25T05:43:05;8.30;99.90
19928;DHT22;10126;50.876;4.470;2023-04-25T05:45:06;8.40;99.90
19928;DHT22;10126;50.876;4.470;2023-04-25T05:47:07;8.40;99.90
19928;DHT22;10126;50.876;4.470;2023-04-25T05:49:10;8.50;99.90
19928;DHT22;10126;50.876;4.470;2023-04-25T05:51:11;8.40;99.90
19928;DHT22;10126;50.876;4.470;2023-04-25T05:53:11;8.40;99.90
19928;DHT22;10126;50.876;4.470;2023-04-25T05:55:12;8.50;99.90
19928;DHT22;10126;50.876;4.470;2023-04-25T05:57:26;8.60;99.90
19928;DHT22;10126;50.876;4.470;2023-04-25T05:59:27;8.70;99.90
19928;DHT22;10126;50.876;4.470;2023-04-25T06:01:28;8.80;99.90
19928;DHT22;10126;50.876;4.470;2023-04-25T06:03:28;8.80;99.90
19928;DHT22;10126;50.876;4.470;2023-04-25T06:05:29;8.80;99.90
19928;DHT22;10126;50.876;4.470;2023-04-25T06:07:30;8.80;99.90
19928;DHT22;10126;50.876;4.470;2023-04-25T06:09:31;8.90;99.90
19928;DHT22;10126;50.876;4.470;2023-04-25T06:11:31;8.70;99.90
19928;DHT22;10126;50.876;4.470;2023-04-25T06:13:32;8.70;99.90
19928;DHT22;10126;50.876;4.470;2023-04-25T06:15:33;8.60;99.90
19928;DHT22;10126;50.876;4.470;2023-04-25T06:17:34;8.60;99.90
19928;DHT22;10126;50.876;4.470;2023-04-25T06:19:36;8.70;99.90
19928;DHT22;10126;50.876;4.470;2023-04-25T06:21:36;8.60;99.90
19928;DHT22;10126;50.876;4.470;2023-04-25T06:23:37;8.70;99.90
19928;DHT22;10126;50.876;4.470;2023-04-25T06:25:38;8.50;99.90
19928;DHT22;10126;50.876;4.470;2023-04-25T06:27:38;8.60;99.90
19928;DHT22;10126;50.876;4.470;2023-04-25T06:29:39;8.70;99.90
19928;DHT22;10126;50.876;4.470;2023-04-25T06:31:39;8.90;99.90
19928;DHT22;10126;50.876;4.470;2023-04-25T06:33:40;9.10;99.90
19928;DHT22;10126;50.876;4.470;2023-04-25T06:35:41;9.20;99.90
19928;DHT22;10126;50.876;4.470;2023-04-25T06:37:41;9.40;99.90
19928;DHT22;10126;50.876;4.470;2023-04-25T06:39:42;9.40;99.90
19928;DHT22;10126;50.876;4.470;2023-04-25T06:41:43;9.50;99.90
19928;DHT22;10126;50.876;4.470;2023-04-25T06:43:44;9.50;99.90
19928;DHT22;10126;50.876;4.470;2023-04-25T06:45:44;9.80;99.90
19928;DHT22;10126;50.876;4.470;2023-04-25T06:47:45;9.70;99.90
19928;DHT22;10126;50.876;4.470;2023-04-25T06:49:46;9.80;99.90
19928;DHT22;10126;50.876;4.470;2023-04-25T06:51:46;9.70;99.90
19928;DHT22;10126;50.876;4.470;2023-04-25T06:53:47;9.70;99.90
19928;DHT22;10126;50.876;4.470;2023-04-25T06:55:48;9.60;99.90
19928;DHT22;10126;50.876;4.470;2023-04-25T06:57:48;9.40;99.90
19928;DHT22;10126;50.876;4.470;2023-04-25T06:59:49;9.30;99.90
19928;DHT22;10126;50.876;4.470;2023-04-25T07:01:49;9.20;99.90
19928;DHT22;10126;50.876;4.470;2023-04-25T07:03:50;9.10;99.90
19928;DHT22;10126;50.876;4.470;2023-04-25T07:05:51;9.00;99.90
19928;DHT22;10126;50.876;4.470;2023-04-25T07:07:51;9.10;99.90
19928;DHT22;10126;50.876;4.470;2023-04-25T07:09:52;9.10;99.90
19928;DHT22;10126;50.876;4.470;2023-04-25T07:11:53;9.20;99.90
19928;DHT22;10126;50.876;4.470;2023-04-25T07:13:53;9.30;99.90
19928;DHT22;10126;50.876;4.470;2023-04-25T07:15:54;9.40;99.90
19928;DHT22;10126;50.876;4.470;2023-04-25T07:17:55;9.50;99.90
19928;DHT22;10126;50.876;4.470;2023-04-25T07:19:55;9.50;99.90
19928;DHT22;10126;50.876;4.470;2023-04-25T07:21:56;9.60;99.90
19928;DHT22;10126;50.876;4.470;2023-04-25T07:23:57;9.50;99.90
19928;DHT22;10126;50.876;4.470;2023-04-25T07:25:58;9.40;99.90
19928;DHT22;10126;50.876;4.470;2023-04-25T07:27:58;9.40;99.90
19928;DHT22;10126;50.876;4.470;2023-04-25T07:29:59;9.40;99.90
19928;DHT22;10126;50.876;4.470;2023-04-25T07:32:00;9.50;99.90
19928;DHT22;10126;50.876;4.470;2023-04-25T07:34:00;9.60;99.90
19928;DHT22;10126;50.876;4.470;2023-04-25T07:36:01;9.70;99.90
19928;DHT22;10126;50.876;4.470;2023-04-25T07:38:02;9.90;99.90
19928;DHT22;10126;50.876;4.470;2023-04-25T07:40:04;10.00;99.90
19928;DHT22;10126;50.876;4.470;2023-04-25T07:42:05;10.10;99.90
19928;DHT22;10126;50.876;4.470;2023-04-25T07:44:08;10.20;99.90
19928;DHT22;10126;50.876;4.470;2023-04-25T07:46:08;10.50;99.90
19928;DHT22;10126;50.876;4.470;2023-04-25T07:48:09;10.90;99.90
19928;DHT22;10126;50.876;4.470;2023-04-25T07:50:10;11.20;99.90
19928;DHT22;10126;50.876;4.470;2023-04-25T07:52:11;11.00;99.90
19928;DHT22;10126;50.876;4.470;2023-04-25T07:54:15;11.20;99.90
19928;DHT22;10126;50.876;4.470;2023-04-25T07:56:16;11.30;99.90
19928;DHT22;10126;50.876;4.470;2023-04-25T07:58:16;11.20;99.90
19928;DHT22;10126;50.876;4.470;2023-04-25T08:00:21;11.70;99.90
19928;DHT22;10126;50.876;4.470;2023-04-25T08:02:22;11.50;99.90
19928;DHT22;10126;50.876;4.470;2023-04-25T08:04:23;11.70;99.90
19928;DHT22;10126;50.876;4.470;2023-04-25T08:06:23;11.40;99.90
19928;DHT22;10126;50.876;4.470;2023-04-25T08:08:24;11.30;99.90
19928;DHT22;10126;50.876;4.470;2023-04-25T08:10:25;11.40;99.90
19928;DHT22;10126;50.876;4.470;2023-04-25T08:12:26;11.10;99.90
19928;DHT22;10126;50.876;4.470;2023-04-25T08:14:26;10.90;99.90
19928;DHT22;10126;50.876;4.470;2023-04-25T08:16:27;10.70;99.90
19928;DHT22;10126;50.876;4.470;2023-04-25T08:18:28;10.70;99.90
19928;DHT22;10126;50.876;4.470;2023-04-25T08:20:29;11.00;99.90
19928;DHT22;10126;50.876;4.470;2023-04-25T08:22:30;11.40;99.90
19928;DHT22;10126;50.876;4.470;2023-04-25T08:24:31;11.80;99.90
19928;DHT22;10126;50.876;4.470;2023-04-25T08:26:31;11.90;99.90
19928;DHT22;10126;50.876;4.470;2023-04-25T08:28:33;11.90;99.90
19928;DHT22;10126;50.876;4.470;2023-04-25T08:30:34;12.10;99.90
19928;DHT22;10126;50.876;4.470;2023-04-25T08:32:34;12.10;99.90
19928;DHT22;10126;50.876;4.470;2023-04-25T08:34:38;11.40;99.90
19928;DHT22;10126;50.876;4.470;2023-04-25T08:36:42;11.30;99.90
19928;DHT22;10126;50.876;4.470;2023-04-25T08:38:43;11.20;99.90
19928;DHT22;10126;50.876;4.470;2023-04-25T08:40:43;11.20;99.90
19928;DHT22;10126;50.876;4.470;2023-04-25T08:42:45;11.50;99.90
19928;DHT22;10126;50.876;4.470;2023-04-25T08:44:48;11.40;99.90
19928;DHT22;10126;50.876;4.470;2023-04-25T08:46:49;11.70;99.90
19928;DHT22;10126;50.876;4.470;2023-04-25T08:48:53;11.80;99.90
19928;DHT22;10126;50.876;4.470;2023-04-25T08:50:57;11.50;99.90
19928;DHT22;10126;50.876;4.470;2023-04-25T08:52:59;11.00;99.90
19928;DHT22;10126;50.876;4.470;2023-04-25T08:55:02;11.00;99.90
19928;DHT22;10126;50.876;4.470;2023-04-25T08:57:03;10.80;99.90
19928;DHT22;10126;50.876;4.470;2023-04-25T08:59:05;10.50;99.90
19928;DHT22;10126;50.876;4.470;2023-04-25T09:01:08;10.20;99.90
19928;DHT22;10126;50.876;4.470;2023-04-25T09:03:09;9.80;99.90
19928;DHT22;10126;50.876;4.470;2023-04-25T09:05:13;9.90;99.90
19928;DHT22;10126;50.876;4.470;2023-04-25T09:07:13;11.60;99.90
19928;DHT22;10126;50.876;4.470;2023-04-25T09:09:18;14.10;99.90
19928;DHT22;10126;50.876;4.470;2023-04-25T09:11:19;15.60;99.90
19928;DHT22;10126;50.876;4.470;2023-04-25T09:13:27;16.20;99.90
19928;DHT22;10126;50.876;4.470;2023-04-25T09:15:28;16.50;99.90
19928;DHT22;10126;50.876;4.470;2023-04-25T09:17:28;15.50;99.90
19928;DHT22;10126;50.876;4.470;2023-04-25T09:19:31;14.70;99.90
19928;DHT22;10126;50.876;4.470;2023-04-25T09:21:32;13.60;99.90
19928;DHT22;10126;50.876;4.470;2023-04-25T09:23:44;13.10;99.90
19928;DHT22;10126;50.876;4.470;2023-04-25T09:25:51;12.50;99.90
19928;DHT22;10126;50.876;4.470;2023-04-25T09:27:54;12.00;99.90
19928;DHT22;10126;50.876;4.470;2023-04-25T09:29:58;11.50;99.90
19928;DHT22;10126;50.876;4.470;2023-04-25T09:32:23;11.30;99.90
19928;DHT22;10126;50.876;4.470;2023-04-25T09:34:25;10.80;99.90
19928;DHT22;10126;50.876;4.470;2023-04-25T09:36:27;10.90;99.90
19928;DHT22;10126;50.876;4.470;2023-04-25T09:38:30;10.90;99.90
19928;DHT22;10126;50.876;4.470;2023-04-25T09:40:31;11.30;99.90
19928;DHT22;10126;50.876;4.470;2023-04-25T09:42:32;11.50;99.90
19928;DHT22;10126;50.876;4.470;2023-04-25T09:44:36;11.50;99.90
19928;DHT22;10126;50.876;4.470;2023-04-25T09:46:36;12.10;99.90
19928;DHT22;10126;50.876;4.470;2023-04-25T09:48:37;12.10;99.90
19928;DHT22;10126;50.876;4.470;2023-04-25T09:50:38;12.30;99.90
19928;DHT22;10126;50.876;4.470;2023-04-25T09:52:39;12.50;99.90
19928;DHT22;10126;50.876;4.470;2023-04-25T09:54:40;13.10;99.90
19928;DHT22;10126;50.876;4.470;2023-04-25T09:56:41;14.50;99.90
19928;DHT22;10126;50.876;4.470;2023-04-25T09:58:42;14.70;99.90
19928;DHT22;10126;50.876;4.470;2023-04-25T10:00:43;13.60;99.90
19928;DHT22;10126;50.876;4.470;2023-04-25T10:02:47;13.00;99.90
19928;DHT22;10126;50.876;4.470;2023-04-25T10:04:51;12.00;99.90
19928;DHT22;10126;50.876;4.470;2023-04-25T10:06:53;11.60;99.90
19928;DHT22;10126;50.876;4.470;2023-04-25T10:08:56;11.50;99.90
19928;DHT22;10126;50.876;4.470;2023-04-25T10:10:59;11.40;99.90
19928;DHT22;10126;50.876;4.470;2023-04-25T10:13:00;11.20;99.90
19928;DHT22;10126;50.876;4.470;2023-04-25T10:15:03;11.80;99.90
19928;DHT22;10126;50.876;4.470;2023-04-25T10:17:04;13.30;99.90
19928;DHT22;10126;50.876;4.470;2023-04-25T10:19:05;13.90;99.90
19928;DHT22;10126;50.876;4.470;2023-04-25T10:21:06;14.10;99.90
19928;DHT22;10126;50.876;4.470;2023-04-25T10:23:12;14.10;99.90
19928;DHT22;10126;50.876;4.470;2023-04-25T10:25:14;14.20;99.90
19928;DHT22;10126;50.876;4.470;2023-04-25T10:27:15;14.20;99.90
19928;DHT22;10126;50.876;4.470;2023-04-25T10:29:26;13.90;99.90
19928;DHT22;10126;50.876;4.470;2023-04-25T10:31:27;13.90;99.90
19928;DHT22;10126;50.876;4.470;2023-04-25T10:33:48;13.60;99.90
19928;DHT22;10126;50.876;4.470;2023-04-25T10:35:49;12.90;99.90
19928;DHT22;10126;50.876;4.470;2023-04-25T10:38:13;12.50;99.90
19928;DHT22;10126;50.876;4.470;2023-04-25T10:40:21;11.90;99.90
19928;DHT22;10126;50.876;4.470;2023-04-25T10:42:22;11.80;99.90
19928;DHT22;10126;50.876;4.470;2023-04-25T10:44:27;11.90;99.90
19928;DHT22;10126;50.876;4.470;2023-04-25T10:46:29;12.50;99.90
19928;DHT22;10126;50.876;4.470;2023-04-25T10:48:32;13.10;99.90
19928;DHT22;10126;50.876;4.470;2023-04-25T10:50:38;12.30;99.90
19928;DHT22;10126;50.876;4.470;2023-04-25T10:52:42;12.30;99.90
19928;DHT22;10126;50.876;4.470;2023-04-25T10:56:52;12.20;99.90
19928;DHT22;10126;50.876;4.470;2023-04-25T11:01:10;12.20;99.90
19928;DHT22;10126;50.876;4.470;2023-04-25T11:03:16;12.10;99.90
19928;DHT22;10126;50.876;4.470;2023-04-25T11:09:38;11.30;99.90
19928;DHT22;10126;50.876;4.470;2023-04-25T11:11:39;11.20;99.90
19928;DHT22;10126;50.876;4.470;2023-04-25T11:13:40;11.20;99.90
19928;DHT22;10126;50.876;4.470;2023-04-25T11:15:41;11.10;99.90
19928;DHT22;10126;50.876;4.470;2023-04-25T11:17:41;10.90;99.90
19928;DHT22;10126;50.876;4.470;2023-04-25T11:19:43;11.00;99.90
19928;DHT22;10126;50.876;4.470;2023-04-25T11:21:44;10.90;99.90
19928;DHT22;10126;50.876;4.470;2023-04-25T11:23:46;10.80;99.90
19928;DHT22;10126;50.876;4.470;2023-04-25T11:25:46;11.00;99.90
19928;DHT22;10126;50.876;4.470;2023-04-25T11:29:51;11.50;99.90
19928;DHT22;10126;50.876;4.470;2023-04-25T11:31:52;11.80;99.90
19928;DHT22;10126;50.876;4.470;2023-04-25T11:33:54;12.00;99.90
19928;DHT22;10126;50.876;4.470;2023-04-25T11:35:57;12.20;99.90
19928;DHT22;10126;50.876;4.470;2023-04-25T11:37:58;12.60;99.90
19928;DHT22;10126;50.876;4.470;2023-04-25T11:39:58;12.90;99.90
19928;DHT22;10126;50.876;4.470;2023-04-25T11:41:59;12.80;99.90
19928;DHT22;10126;50.876;4.470;2023-04-25T11:44:02;12.10;99.90
19928;DHT22;10126;50.876;4.470;2023-04-25T11:46:07;12.20;99.90
19928;DHT22;10126;50.876;4.470;2023-04-25T11:48:08;12.40;99.90
19928;DHT22;10126;50.876;4.470;2023-04-25T11:50:09;12.60;99.90
19928;DHT22;10126;50.876;4.470;2023-04-25T11:52:10;13.10;99.90
19928;DHT22;10126;50.876;4.470;2023-04-25T11:54:11;13.10;99.90
19928;DHT22;10126;50.876;4.470;2023-04-25T11:56:13;13.20;99.90
19928;DHT22;10126;50.876;4.470;2023-04-25T11:58:13;13.20;99.90
19928;DHT22;10126;50.876;4.470;2023-04-25T12:00:17;13.10;99.90
19928;DHT22;10126;50.876;4.470;2023-04-25T12:02:25;12.70;99.90
19928;DHT22;10126;50.876;4.470;2023-04-25T12:04:26;12.50;99.90
19928;DHT22;10126;50.876;4.470;2023-04-25T12:06:28;12.10;99.90
19928;DHT22;10126;50.876;4.470;2023-04-25T12:08:28;11.50;99.90
19928;DHT22;10126;50.876;4.470;2023-04-25T12:10:29;11.60;99.90
19928;DHT22;10126;50.876;4.470;2023-04-25T12:12:34;12.10;99.90
19928;DHT22;10126;50.876;4.470;2023-04-25T12:14:35;12.40;99.90
19928;DHT22;10126;50.876;4.470;2023-04-25T12:16:44;12.60;99.90
19928;DHT22;10126;50.876;4.470;2023-04-25T12:18:45;12.90;99.90
19928;DHT22;10126;50.876;4.470;2023-04-25T12:20:46;13.10;99.90
19928;DHT22;10126;50.876;4.470;2023-04-25T12:22:47;13.00;99.90
19928;DHT22;10126;50.876;4.470;2023-04-25T12:24:49;13.00;99.90
19928;DHT22;10126;50.876;4.470;2023-04-25T12:26:53;12.70;99.90
19928;DHT22;10126;50.876;4.470;2023-04-25T12:28:54;12.60;99.90
19928;DHT22;10126;50.876;4.470;2023-04-25T12:30:58;12.60;99.90
19928;DHT22;10126;50.876;4.470;2023-04-25T12:32:59;12.80;99.90
19928;DHT22;10126;50.876;4.470;2023-04-25T12:35:00;13.00;99.90
19928;DHT22;10126;50.876;4.470;2023-04-25T12:37:00;12.90;99.90
19928;DHT22;10126;50.876;4.470;2023-04-25T12:39:01;12.80;99.90
19928;DHT22;10126;50.876;4.470;2023-04-25T12:41:04;13.00;99.90
19928;DHT22;10126;50.876;4.470;2023-04-25T12:43:05;13.00;99.90
19928;DHT22;10126;50.876;4.470;2023-04-25T12:45:06;13.20;99.90
19928;DHT22;10126;50.876;4.470;2023-04-25T12:47:07;13.10;99.90
19928;DHT22;10126;50.876;4.470;2023-04-25T12:49:08;13.00;99.90
19928;DHT22;10126;50.876;4.470;2023-04-25T12:51:09;13.00;99.90
19928;DHT22;10126;50.876;4.470;2023-04-25T12:53:10;13.00;99.90
19928;DHT22;10126;50.876;4.470;2023-04-25T12:55:11;13.10;99.90
19928;DHT22;10126;50.876;4.470;2023-04-25T12:57:12;13.40;99.90
19928;DHT22;10126;50.876;4.470;2023-04-25T12:59:13;13.40;99.90
19928;DHT22;10126;50.876;4.470;2023-04-25T13:01:14;13.40;99.90
19928;DHT22;10126;50.876;4.470;2023-04-25T13:03:15;13.20;99.90
19928;DHT22;10126;50.876;4.470;2023-04-25T13:05:15;13.10;99.90
19928;DHT22;10126;50.876;4.470;2023-04-25T13:07:16;12.50;99.90
19928;DHT22;10126;50.876;4.470;2023-04-25T13:09:17;12.30;99.90
19928;DHT22;10126;50.876;4.470;2023-04-25T13:11:17;12.20;99.90